createdAt,value
2023-04-09T00:01:03.488Z,79.74
2023-04-09T00:03:43.973Z,79.84
2023-04-09T00:06:37.570Z,79.86
2023-04-09T00:09:16.099Z,79.95
2023-04-09T00:11:50.903Z,79.90
2023-04-09T00:14:26.039Z,79.90
2023-04-09T00:17:03.204Z,79.89
2023-04-09T00:19:39.277Z,79.74
2023-04-09T00:22:17.364Z,79.78
2023-04-09T00:24:52.917Z,79.81
2023-04-09T00:27:33.352Z,79.87
2023-04-09T00:30:11.817Z,80.04
2023-04-09T00:32:48.096Z,80.24
2023-04-09T00:35:22.225Z,80.10
2023-04-09T00:38:00.388Z,80.22
2023-04-09T00:40:39.452Z,80.28
2023-04-09T00:43:17.511Z,80.31
2023-04-09T00:45:55.386Z,80.54
2023-04-09T00:48:31.155Z,80.32
2023-04-09T00:51:08.753Z,80.56
2023-04-09T00:53:47.597Z,80.40
2023-04-09T00:56:24.275Z,80.27
2023-04-09T00:59:03.985Z,80.50
2023-04-09T01:01:40.566Z,80.73
2023-04-09T01:04:17.851Z,80.89
2023-04-09T01:07:00.268Z,81.17
2023-04-09T01:09:39.254Z,81.33
2023-04-09T01:12:28.494Z,81.39
2023-04-09T01:15:09.321Z,81.69
2023-04-09T01:17:53.101Z,81.63
2023-04-09T01:20:40.678Z,81.47
2023-04-09T01:23:22.013Z,81.98
2023-04-09T01:26:07.435Z,82.27
2023-04-09T01:28:55.373Z,82.45
2023-04-09T01:31:34.724Z,82.23
2023-04-09T01:34:13.210Z,82.34
2023-04-09T01:36:53.583Z,82.17
2023-04-09T01:39:32.395Z,82.46
2023-04-09T01:42:11.731Z,82.57
2023-04-09T01:44:49.481Z,82.53
2023-04-09T01:47:28.820Z,82.58
2023-04-09T01:50:07.544Z,82.95
2023-04-09T01:52:43.382Z,83.25
2023-04-09T01:55:18.110Z,83.57
2023-04-09T01:57:54.307Z,83.62
2023-04-09T02:00:37.422Z,83.94
2023-04-09T02:03:18.564Z,84.24
2023-04-09T02:06:02.424Z,84.38
2023-04-09T02:08:45.096Z,84.74
2023-04-09T02:11:21.468Z,84.67
2023-04-09T02:14:01.625Z,84.89
2023-04-09T02:16:37.851Z,85.02
2023-04-09T02:19:15.288Z,85.26
2023-04-09T02:21:53.376Z,85.35
2023-04-09T02:24:31.283Z,85.31
2023-04-09T02:27:07.743Z,85.60
2023-04-09T02:29:47.022Z,85.78
2023-04-09T02:32:21.762Z,85.96
2023-04-09T02:34:56.329Z,86.07
2023-04-09T02:37:32.322Z,86.08
2023-04-09T02:40:20.903Z,86.15
2023-04-09T02:42:57.451Z,86.30
2023-04-09T02:45:35.237Z,86.55
2023-04-09T02:48:12.184Z,86.77
2023-04-09T02:50:51.129Z,86.72
2023-04-09T02:53:26.644Z,87.19
2023-04-09T02:56:03.305Z,86.97
2023-04-09T02:58:39.022Z,87.22
2023-04-09T03:01:16.637Z,87.11
2023-04-09T03:03:56.902Z,87.34
2023-04-09T03:06:34.441Z,87.06
2023-04-09T03:09:12.125Z,87.43
2023-04-09T03:11:48.230Z,87.56
2023-04-09T03:14:24.852Z,87.60
2023-04-09T03:17:02.153Z,87.76
2023-04-09T03:19:42.182Z,87.99
2023-04-09T03:22:19.145Z,88.03
2023-04-09T03:24:58.526Z,88.15
2023-04-09T03:27:36.335Z,88.17
2023-04-09T03:30:17.359Z,88.16
2023-04-09T03:32:54.123Z,88.10
2023-04-09T03:35:34.394Z,88.40
2023-04-09T03:38:12.832Z,88.64
2023-04-09T03:40:49.255Z,89.05
2023-04-09T03:43:24.447Z,89.08
2023-04-09T03:46:01.249Z,89.20
2023-04-09T03:48:38.237Z,89.16
2023-04-09T03:51:16.095Z,89.46
2023-04-09T03:53:58.534Z,89.72
2023-04-09T03:56:35.153Z,89.80
2023-04-09T03:59:10.423Z,89.98
2023-04-09T04:01:48.895Z,90.03
2023-04-09T04:04:26.418Z,90.11
2023-04-09T04:07:05.142Z,90.17
2023-04-09T04:09:49.482Z,90.44
2023-04-09T04:12:27.385Z,90.65
2023-04-09T04:15:18.208Z,90.98
2023-04-09T04:17:55.748Z,90.88
2023-04-09T04:21:03.999Z,90.89
2023-04-09T04:23:40.818Z,91.08
2023-04-09T04:26:25.830Z,91.41
2023-04-09T04:29:01.624Z,91.58
2023-04-09T04:32:08.872Z,91.45
2023-04-09T04:34:45.212Z,91.53
2023-04-09T04:37:28.929Z,91.58
2023-04-09T04:40:11.367Z,91.68
2023-04-09T04:42:51.038Z,91.99
2023-04-09T04:45:28.479Z,92.17
2023-04-09T04:48:11.750Z,92.19
2023-04-09T04:50:48.281Z,92.23
2023-04-09T04:53:24.618Z,92.19
2023-04-09T04:56:01.856Z,92.09
2023-04-09T04:58:37.235Z,92.02
2023-04-09T05:01:13.002Z,92.28
2023-04-09T05:03:52.840Z,92.24
2023-04-09T05:06:37.908Z,92.13
2023-04-09T05:09:18.749Z,92.07
2023-04-09T05:12:06.139Z,92.17
2023-04-09T05:14:42.484Z,92.38
2023-04-09T05:17:18.803Z,92.19
2023-04-09T05:19:59.304Z,92.24
2023-04-09T05:22:44.626Z,92.47
2023-04-09T05:25:29.752Z,92.49
2023-04-09T05:28:05.534Z,92.61
2023-04-09T05:30:41.789Z,92.56
2023-04-09T05:33:20.463Z,92.40
2023-04-09T05:35:59.141Z,92.44
2023-04-09T05:38:34.847Z,92.46
2023-04-09T05:41:11.545Z,92.60
2023-04-09T05:43:56.089Z,92.70
2023-04-09T05:46:33.108Z,92.92
2023-04-09T05:49:13.835Z,92.60
2023-04-09T05:51:58.492Z,92.57
2023-04-09T05:54:35.024Z,92.49
2023-04-09T05:57:10.440Z,92.68
2023-04-09T05:59:47.385Z,92.75
2023-04-09T06:02:28.511Z,92.77
2023-04-09T06:05:06.282Z,93.01
2023-04-09T06:07:42.166Z,93.28
2023-04-09T06:10:25.557Z,93.34
2023-04-09T06:13:09.394Z,93.33
2023-04-09T06:15:50.517Z,93.53
2023-04-09T06:18:25.189Z,93.58
2023-04-09T06:21:08.823Z,93.67
2023-04-09T06:23:46.495Z,93.73
2023-04-09T06:26:23.788Z,93.94
2023-04-09T06:29:01.351Z,93.85
2023-04-09T06:31:38.640Z,93.94
2023-04-09T06:34:16.884Z,93.92
2023-04-09T06:37:01.309Z,93.70
2023-04-09T06:39:40.399Z,93.70
2023-04-09T06:42:21.402Z,93.67
2023-04-09T06:45:04.352Z,93.67
2023-04-09T06:47:41.649Z,93.58
2023-04-09T06:50:18.261Z,93.72
2023-04-09T06:52:56.174Z,93.74
2023-04-09T06:55:32.287Z,93.50
2023-04-09T06:58:09.819Z,93.39
2023-04-09T07:00:45.970Z,93.48
2023-04-09T07:03:41.842Z,93.67
2023-04-09T07:06:17.998Z,93.38
2023-04-09T07:08:54.815Z,92.99
2023-04-09T07:11:33.375Z,93.01
2023-04-09T07:14:12.571Z,93.09
2023-04-09T07:16:58.728Z,93.02
2023-04-09T07:19:34.408Z,93.16
2023-04-09T07:22:15.651Z,93.15
2023-04-09T07:24:58.376Z,93.24
2023-04-09T07:27:35.529Z,93.12
2023-04-09T07:30:18.315Z,93.26
2023-04-09T07:32:53.555Z,93.08
2023-04-09T07:35:30.832Z,93.20
2023-04-09T07:38:08.344Z,93.13
2023-04-09T07:40:49.001Z,92.91
2023-04-09T07:43:25.083Z,92.14
2023-04-09T07:46:00.272Z,92.19
2023-04-09T07:48:37.498Z,92.16
2023-04-09T07:51:15.131Z,92.33
2023-04-09T07:53:54.527Z,92.31
2023-04-09T07:56:32.004Z,92.11
2023-04-09T07:59:09.652Z,91.89
2023-04-09T08:01:45.849Z,91.95
2023-04-09T08:04:25.380Z,91.80
2023-04-09T08:07:02.882Z,91.91
2023-04-09T08:09:41.859Z,91.71
2023-04-09T08:12:30.712Z,91.69
2023-04-09T08:15:11.032Z,91.97
2023-04-09T08:18:05.564Z,91.72
2023-04-09T08:20:46.360Z,91.61
2023-04-09T08:23:24.624Z,91.48
2023-04-09T08:26:00.538Z,91.33
2023-04-09T08:28:35.820Z,91.21
2023-04-09T08:31:14.605Z,91.10
2023-04-09T08:33:51.823Z,91.26
2023-04-09T08:36:29.178Z,91.09
2023-04-09T08:39:06.198Z,91.07
2023-04-09T08:41:46.867Z,90.70
2023-04-09T08:44:30.702Z,90.44
2023-04-09T08:47:10.701Z,90.76
2023-04-09T08:49:45.911Z,90.27
2023-04-09T08:52:22.442Z,90.06
2023-04-09T08:54:59.385Z,89.95
2023-04-09T08:57:40.319Z,89.68
2023-04-09T09:00:21.738Z,90.16
2023-04-09T09:03:14.541Z,89.73
2023-04-09T09:05:54.560Z,89.84
2023-04-09T09:08:33.446Z,89.71
2023-04-09T09:11:27.159Z,89.82
2023-04-09T09:14:08.897Z,89.45
2023-04-09T09:16:50.515Z,89.12
2023-04-09T09:19:36.829Z,88.86
2023-04-09T09:22:15.629Z,88.76
2023-04-09T09:24:54.413Z,88.39
2023-04-09T09:27:41.525Z,88.28
2023-04-09T09:30:28.407Z,88.13
2023-04-09T09:33:10.275Z,87.75
2023-04-09T09:36:04.152Z,87.62
2023-04-09T09:38:57.781Z,87.75
2023-04-09T09:41:38.433Z,87.69
2023-04-09T09:44:13.529Z,87.38
2023-04-09T09:46:48.854Z,87.37
2023-04-09T09:49:40.453Z,86.99
2023-04-09T09:52:17.481Z,86.85
2023-04-09T09:54:57.220Z,87.31
2023-04-09T09:57:38.561Z,87.17
2023-04-09T10:00:28.001Z,86.78
2023-04-09T10:03:24.149Z,86.65
2023-04-09T10:06:02.569Z,86.93
2023-04-09T10:08:41.979Z,86.96
2023-04-09T10:11:18.655Z,86.23
2023-04-09T10:14:00.996Z,85.68
2023-04-09T10:16:41.228Z,85.99
2023-04-09T10:19:17.529Z,85.67
2023-04-09T10:22:05.021Z,85.57
2023-04-09T10:24:41.959Z,85.36
2023-04-09T10:27:19.788Z,85.37
2023-04-09T10:29:55.956Z,85.64
2023-04-09T10:32:40.918Z,85.32
2023-04-09T10:35:29.891Z,84.65
2023-04-09T10:38:05.030Z,84.49
2023-04-09T10:41:21.147Z,84.02
2023-04-09T10:43:59.873Z,84.15
2023-04-09T10:46:46.293Z,84.35
2023-04-09T10:49:23.540Z,84.23
2023-04-09T10:52:06.547Z,83.07
2023-04-09T10:54:51.438Z,82.92
2023-04-09T10:57:28.812Z,83.42
2023-04-09T11:00:04.468Z,83.28
2023-04-09T11:03:16.750Z,83.16
2023-04-09T11:05:57.885Z,83.36
2023-04-09T11:08:35.794Z,83.12
2023-04-09T11:11:21.728Z,82.88
2023-04-09T11:14:03.043Z,82.35
2023-04-09T11:16:41.533Z,83.20
2023-04-09T11:19:22.933Z,83.33
2023-04-09T11:22:00.075Z,83.46
2023-04-09T11:24:48.179Z,83.39
2023-04-09T11:27:26.126Z,82.73
2023-04-09T11:30:03.839Z,82.94
2023-04-09T11:32:40.798Z,82.60
2023-04-09T11:35:20.858Z,82.84
2023-04-09T11:37:58.710Z,82.83
2023-04-09T11:40:34.784Z,82.81
2023-04-09T11:43:11.987Z,82.76
2023-04-09T11:45:49.039Z,82.69
2023-04-09T11:48:25.437Z,82.68
2023-04-09T11:51:00.536Z,83.16
2023-04-09T11:53:39.785Z,82.98
2023-04-09T11:56:17.306Z,82.86
2023-04-09T11:58:52.906Z,82.58
2023-04-09T12:01:37.505Z,82.45
2023-04-09T12:04:14.695Z,82.03
2023-04-09T12:06:51.776Z,82.02
2023-04-09T12:09:29.811Z,81.88
2023-04-09T12:12:12.356Z,81.46
2023-04-09T12:15:01.884Z,81.25
2023-04-09T12:17:38.965Z,80.99
2023-04-09T12:20:15.550Z,80.90
2023-04-09T12:22:53.975Z,81.02
2023-04-09T12:25:35.841Z,81.05
2023-04-09T12:28:19.075Z,80.64
2023-04-09T12:30:55.791Z,80.09
2023-04-09T12:33:32.667Z,80.17
2023-04-09T12:36:08.436Z,79.74
2023-04-09T12:38:44.826Z,79.32
2023-04-09T12:41:22.786Z,79.71
2023-04-09T12:43:58.968Z,79.67
2023-04-09T12:46:33.623Z,79.26
2023-04-09T12:49:09.896Z,78.75
2023-04-09T12:51:49.806Z,78.78
2023-04-09T12:54:24.316Z,78.68
2023-04-09T12:57:00.409Z,79.09
2023-04-09T12:59:36.774Z,79.35
2023-04-09T13:02:17.154Z,79.66
2023-04-09T13:04:52.964Z,79.45
2023-04-09T13:07:29.968Z,79.53
2023-04-09T13:10:06.970Z,79.14
2023-04-09T13:12:44.159Z,79.12
2023-04-09T13:15:21.101Z,79.61
2023-04-09T13:17:56.788Z,79.53
2023-04-09T13:20:36.056Z,79.56
2023-04-09T13:23:15.769Z,78.89
2023-04-09T13:25:53.637Z,79.45
2023-04-09T13:28:31.370Z,79.63
2023-04-09T13:31:09.832Z,79.94
2023-04-09T13:33:48.178Z,79.82
2023-04-09T13:36:26.874Z,79.69
2023-04-09T13:39:06.675Z,79.89
2023-04-09T13:41:44.312Z,79.79
2023-04-09T13:44:21.077Z,79.62
2023-04-09T13:46:57.215Z,79.08
2023-04-09T13:49:33.883Z,78.65
2023-04-09T13:52:11.950Z,78.61
2023-04-09T13:54:48.709Z,78.70
2023-04-09T13:57:24.785Z,77.86
2023-04-09T14:00:02.876Z,77.84
2023-04-09T14:02:41.674Z,78.10
2023-04-09T14:05:18.085Z,78.46
2023-04-09T14:07:54.097Z,78.18
2023-04-09T14:10:31.771Z,78.20
2023-04-09T14:13:13.281Z,78.66
2023-04-09T14:15:51.305Z,77.72
2023-04-09T14:18:27.793Z,77.73
2023-04-09T14:21:04.526Z,77.43
2023-04-09T14:23:43.455Z,78.01
2023-04-09T14:26:23.497Z,77.80
2023-04-09T14:29:00.128Z,77.90
2023-04-09T14:31:47.822Z,78.03
2023-04-09T14:34:25.155Z,77.88
2023-04-09T14:36:59.893Z,77.99
2023-04-09T14:39:37.037Z,77.95
2023-04-09T14:42:13.510Z,77.82
2023-04-09T14:44:50.798Z,78.06
2023-04-09T14:47:27.278Z,78.16
2023-04-09T14:50:03.115Z,78.10
2023-04-09T14:52:39.542Z,78.08
2023-04-09T14:55:18.927Z,78.15
2023-04-09T14:57:57.134Z,78.04
2023-04-09T15:00:32.496Z,78.44
2023-04-09T15:03:14.159Z,78.61
2023-04-09T15:05:51.242Z,78.58
2023-04-09T15:08:25.721Z,78.63
2023-04-09T15:11:01.640Z,78.97
2023-04-09T15:13:37.632Z,78.70
2023-04-09T15:16:23.187Z,78.87
2023-04-09T15:19:00.206Z,79.02
2023-04-09T15:21:36.957Z,78.85
2023-04-09T15:24:12.441Z,78.98
2023-04-09T15:26:48.994Z,78.72
2023-04-09T15:29:26.503Z,78.93
2023-04-09T15:32:21.330Z,79.01
2023-04-09T15:34:57.466Z,79.01
2023-04-09T15:37:32.296Z,79.18
2023-04-09T15:40:10.637Z,79.17
2023-04-09T15:42:46.410Z,79.12
2023-04-09T15:45:23.736Z,79.38
2023-04-09T15:47:59.305Z,79.42
2023-04-09T15:50:35.417Z,79.37
2023-04-09T15:53:12.774Z,79.29
2023-04-09T15:55:50.187Z,79.55
2023-04-09T15:58:25.997Z,79.25
2023-04-09T16:01:02.599Z,79.23
2023-04-09T16:03:52.118Z,79.48
2023-04-09T16:06:28.123Z,79.56
2023-04-09T16:09:04.628Z,79.67
2023-04-09T16:11:41.406Z,79.84
2023-04-09T16:14:22.714Z,80.03
2023-04-09T16:16:59.482Z,79.90
2023-04-09T16:19:37.178Z,79.84
2023-04-09T16:22:16.555Z,79.96
2023-04-09T16:24:54.170Z,79.88
2023-04-09T16:27:29.586Z,79.97
2023-04-09T16:30:06.181Z,80.28
2023-04-09T16:32:43.083Z,80.46
2023-04-09T16:35:18.592Z,80.55
2023-04-09T16:37:57.344Z,80.81
2023-04-09T16:40:32.044Z,80.93
2023-04-09T16:43:09.808Z,80.73
2023-04-09T16:45:47.301Z,80.88
2023-04-09T16:48:23.187Z,81.04
2023-04-09T16:50:57.891Z,81.00
2023-04-09T16:53:35.036Z,81.09
2023-04-09T16:56:12.027Z,81.15
2023-04-09T16:58:48.223Z,81.22
2023-04-09T17:01:27.373Z,81.29
2023-04-09T17:04:03.235Z,81.34
2023-04-09T17:06:40.242Z,81.61
2023-04-09T17:09:18.654Z,81.75
2023-04-09T17:11:55.203Z,81.83
2023-04-09T17:14:30.524Z,82.00
2023-04-09T17:17:06.358Z,82.18
2023-04-09T17:19:46.555Z,82.24
2023-04-09T17:22:23.939Z,82.25
2023-04-09T17:25:03.193Z,82.28
2023-04-09T17:27:39.402Z,82.31
2023-04-09T17:30:18.957Z,82.48
2023-04-09T17:32:57.301Z,82.55
2023-04-09T17:35:33.062Z,82.58
2023-04-09T17:38:14.576Z,82.53
2023-04-09T17:40:51.301Z,82.56
2023-04-09T17:43:27.333Z,82.52
2023-04-09T17:46:03.861Z,82.49
2023-04-09T17:48:41.425Z,82.53
2023-04-09T17:51:23.805Z,82.59
2023-04-09T17:54:00.257Z,82.82
2023-04-09T17:56:40.073Z,82.96
2023-04-09T17:59:17.532Z,83.16
2023-04-09T18:02:06.154Z,83.46
2023-04-09T18:04:44.524Z,83.74
2023-04-09T18:07:25.399Z,83.80
2023-04-09T18:10:01.946Z,83.84
2023-04-09T18:12:38.643Z,83.95
2023-04-09T18:15:18.981Z,83.69
2023-04-09T18:17:53.966Z,83.78
2023-04-09T18:20:34.406Z,83.65
2023-04-09T18:23:12.107Z,83.66
2023-04-09T18:25:48.524Z,83.57
2023-04-09T18:28:24.706Z,83.69
2023-04-09T18:31:00.909Z,83.78
2023-04-09T18:33:35.480Z,83.80
2023-04-09T18:36:12.078Z,83.66
2023-04-09T18:38:54.201Z,83.81
2023-04-09T18:41:32.924Z,83.87
2023-04-09T18:44:09.145Z,83.89
2023-04-09T18:46:45.170Z,83.87
2023-04-09T18:49:21.458Z,83.76
2023-04-09T18:51:57.905Z,83.76
2023-04-09T18:54:37.389Z,83.70
2023-04-09T18:57:14.009Z,83.69
2023-04-09T18:59:52.503Z,83.82
2023-04-09T19:02:33.081Z,83.94
2023-04-09T19:05:12.172Z,84.11
2023-04-09T19:07:48.103Z,84.42
2023-04-09T19:10:26.756Z,84.56
2023-04-09T19:13:03.449Z,84.84
2023-04-09T19:15:39.812Z,84.74
2023-04-09T19:18:16.250Z,85.01
2023-04-09T19:20:54.939Z,85.04
2023-04-09T19:23:35.129Z,85.12
2023-04-09T19:26:18.604Z,85.28
2023-04-09T19:28:55.989Z,85.27
2023-04-09T19:31:38.187Z,85.36
2023-04-09T19:34:14.148Z,85.49
2023-04-09T19:36:48.581Z,85.50
2023-04-09T19:39:28.331Z,85.64
2023-04-09T19:42:01.818Z,85.69
2023-04-09T19:44:38.617Z,85.83
2023-04-09T19:47:15.967Z,85.85
2023-04-09T19:49:52.816Z,86.10
2023-04-09T19:52:31.330Z,86.20
2023-04-09T19:55:06.826Z,86.31
2023-04-09T19:57:44.813Z,86.64
2023-04-09T20:00:24.062Z,86.51
2023-04-09T20:03:02.214Z,86.65
2023-04-09T20:05:40.507Z,86.61
2023-04-09T20:08:16.517Z,86.60
2023-04-09T20:10:52.986Z,86.47
2023-04-09T20:13:30.665Z,86.37
2023-04-09T20:16:07.038Z,86.26
2023-04-09T20:18:47.704Z,86.37
2023-04-09T20:21:24.401Z,85.98
2023-04-09T20:23:58.930Z,85.77
2023-04-09T20:26:38.098Z,85.82
2023-04-09T20:29:14.737Z,85.49
2023-04-09T20:31:50.720Z,85.41
2023-04-09T20:34:31.730Z,85.11
2023-04-09T20:37:07.152Z,85.04
2023-04-09T20:39:47.949Z,85.13
2023-04-09T20:42:25.141Z,85.05
2023-04-09T20:45:01.994Z,84.63
2023-04-09T20:47:39.307Z,84.44
2023-04-09T20:50:16.650Z,84.32
2023-04-09T20:52:53.328Z,84.29
2023-04-09T20:55:29.511Z,83.88
2023-04-09T20:58:06.508Z,84.01
2023-04-09T21:00:42.232Z,83.93
2023-04-09T21:03:18.864Z,83.54
2023-04-09T21:05:53.764Z,83.59
2023-04-09T21:08:29.753Z,83.45
2023-04-09T21:11:09.030Z,83.36
2023-04-09T21:13:54.503Z,83.31
2023-04-09T21:16:31.423Z,83.39
2023-04-09T21:19:08.899Z,83.20
2023-04-09T21:21:50.710Z,82.56
2023-04-09T21:24:31.369Z,82.69
2023-04-09T21:27:08.913Z,82.88
2023-04-09T21:29:53.652Z,82.76
2023-04-09T21:32:29.271Z,82.71
2023-04-09T21:35:12.048Z,82.65
2023-04-09T21:37:46.056Z,82.71
2023-04-09T21:40:23.983Z,82.49
2023-04-09T21:43:04.200Z,82.11
2023-04-09T21:45:40.784Z,82.24
2023-04-09T21:48:21.011Z,82.19
2023-04-09T21:50:58.675Z,82.07
2023-04-09T21:53:36.948Z,81.61
2023-04-09T21:56:17.072Z,81.55
2023-04-09T21:58:53.025Z,81.70
2023-04-09T22:01:29.921Z,81.45
2023-04-09T22:04:11.282Z,81.61
2023-04-09T22:06:51.121Z,81.78
2023-04-09T22:09:28.702Z,81.59
2023-04-09T22:12:07.078Z,81.68
2023-04-09T22:14:42.627Z,81.56
2023-04-09T22:17:19.866Z,81.58
2023-04-09T22:19:58.112Z,81.72
2023-04-09T22:22:39.133Z,81.52
2023-04-09T22:25:17.948Z,81.63
2023-04-09T22:27:57.809Z,81.50
2023-04-09T22:30:34.913Z,81.46
2023-04-09T22:33:10.844Z,81.41
2023-04-09T22:35:49.127Z,81.46
2023-04-09T22:38:25.752Z,81.71
2023-04-09T22:41:00.972Z,81.56
2023-04-09T22:43:37.086Z,81.49
2023-04-09T22:46:17.012Z,81.38
2023-04-09T22:48:55.131Z,81.05
2023-04-09T22:51:35.362Z,81.19
2023-04-09T22:54:13.154Z,81.05
2023-04-09T22:56:55.538Z,81.22
2023-04-09T22:59:40.208Z,81.34
2023-04-09T23:02:20.303Z,81.35
2023-04-09T23:05:03.062Z,80.84
2023-04-09T23:07:39.092Z,81.01
2023-04-09T23:10:19.111Z,81.09
2023-04-09T23:12:55.041Z,81.01
2023-04-09T23:15:33.886Z,80.90
2023-04-09T23:18:09.991Z,80.77
2023-04-09T23:20:47.044Z,80.88
2023-04-09T23:23:24.276Z,81.05
2023-04-09T23:26:00.115Z,80.90
2023-04-09T23:28:36.191Z,80.73
2023-04-09T23:31:12.021Z,80.53
2023-04-09T23:33:49.955Z,80.92
2023-04-09T23:36:32.751Z,80.73
2023-04-09T23:39:10.095Z,80.94
2023-04-09T23:41:48.388Z,81.07
2023-04-09T23:44:22.713Z,81.11
2023-04-09T23:47:00.335Z,81.15
2023-04-09T23:49:38.075Z,81.03
2023-04-09T23:52:18.086Z,81.10
2023-04-09T23:54:56.123Z,81.03
2023-04-09T23:57:35.223Z,81.22
